createdAt,value
2023-03-16T00:00:48.251Z,99524.72
2023-03-16T00:03:35.326Z,99527.25
2023-03-16T00:06:23.033Z,99461.25
2023-03-16T00:09:10.927Z,99477.31
2023-03-16T00:11:58.851Z,99485.16
2023-03-16T00:14:48.171Z,99520.41
2023-03-16T00:17:34.971Z,99490.56
2023-03-16T00:20:21.424Z,99501.19
2023-03-16T00:23:08.245Z,99499.84
2023-03-16T00:25:58.983Z,99463.84
2023-03-16T00:28:45.311Z,99489.88
2023-03-16T00:31:33.821Z,99474.41
2023-03-16T00:34:20.506Z,99494.31
2023-03-16T00:37:07.137Z,99494.88
2023-03-16T00:39:56.270Z,99515.44
2023-03-16T00:42:42.875Z,99490.22
2023-03-16T00:45:30.064Z,99490.56
2023-03-16T00:48:18.336Z,99530.88
2023-03-16T00:51:07.790Z,99517.03
2023-03-16T00:53:54.366Z,99476.09
2023-03-16T00:56:43.079Z,99510.53
2023-03-16T00:59:30.987Z,99487.31
2023-03-16T01:02:19.984Z,99498.59
2023-03-16T01:05:06.944Z,99418.34
2023-03-16T01:07:53.229Z,99468.09
2023-03-16T01:10:40.576Z,99474.63
2023-03-16T01:13:27.109Z,99475.16
2023-03-16T01:16:13.417Z,99471.59
2023-03-16T01:18:59.816Z,99445.94
2023-03-16T01:21:47.533Z,99456.25
2023-03-16T01:24:35.794Z,99444.84
2023-03-16T01:27:22.734Z,99464.06
2023-03-16T01:30:12.309Z,99445.59
2023-03-16T01:32:59.018Z,99446.34
2023-03-16T01:35:53.951Z,99469.47
2023-03-16T01:38:41.493Z,99479.22
2023-03-16T01:41:27.778Z,99446.56
2023-03-16T01:44:17.372Z,99472.22
2023-03-16T01:47:03.934Z,99451.66
2023-03-16T01:49:55.052Z,99446.16
2023-03-16T01:52:44.391Z,99459.59
2023-03-16T01:55:31.311Z,99447.91
2023-03-16T01:58:17.765Z,99443.84
2023-03-16T02:01:04.789Z,99390.03
2023-03-16T02:03:57.664Z,99469.47
2023-03-16T02:06:45.795Z,99466.84
2023-03-16T02:09:33.540Z,99445.63
2023-03-16T02:12:21.522Z,99448.50
2023-03-16T02:15:14.156Z,99464.78
2023-03-16T02:18:00.842Z,99426.81
2023-03-16T02:20:56.698Z,99467.25
2023-03-16T02:23:44.361Z,99472.16
2023-03-16T02:26:55.026Z,99466.22
2023-03-16T02:30:30.808Z,99467.28
2023-03-16T02:33:23.085Z,99402.88
2023-03-16T02:36:11.537Z,99460.50
2023-03-16T02:38:58.111Z,99421.78
2023-03-16T02:41:47.284Z,99407.06
2023-03-16T02:44:36.862Z,99417.88
2023-03-16T02:47:44.119Z,99376.91
2023-03-16T02:50:30.930Z,99399.50
2023-03-16T02:53:17.758Z,99402.09
2023-03-16T02:56:04.484Z,99424.09
2023-03-16T02:58:54.780Z,99386.66
2023-03-16T03:01:41.943Z,99419.91
2023-03-16T03:04:29.745Z,99441.06
2023-03-16T03:07:16.401Z,99324.78
2023-03-16T03:10:15.713Z,99456.63
2023-03-16T03:13:01.917Z,99446.50
2023-03-16T03:15:48.610Z,99403.09
2023-03-16T03:18:35.274Z,99426.72
2023-03-16T03:21:21.852Z,99430.28
2023-03-16T03:24:09.585Z,99396.56
2023-03-16T03:26:57.176Z,99421.94
2023-03-16T03:29:44.586Z,99402.56
2023-03-16T03:32:31.127Z,99395.34
2023-03-16T03:35:18.147Z,99368.50
2023-03-16T03:38:04.341Z,99368.63
2023-03-16T03:40:51.989Z,99425.66
2023-03-16T03:43:38.447Z,99404.75
2023-03-16T03:46:27.840Z,99404.91
2023-03-16T03:49:15.274Z,99412.13
2023-03-16T03:52:04.974Z,99355.47
2023-03-16T03:54:51.586Z,99405.06
2023-03-16T03:57:38.290Z,99385.44
2023-03-16T04:00:24.993Z,99371.78
2023-03-16T04:03:11.898Z,99397.38
2023-03-16T04:06:03.901Z,99334.03
2023-03-16T04:08:51.304Z,99389.72
2023-03-16T04:11:41.635Z,99378.03
2023-03-16T04:14:29.490Z,99414.19
2023-03-16T04:17:15.863Z,99345.22
2023-03-16T04:20:05.993Z,99360.44
2023-03-16T04:22:58.313Z,99367.81
2023-03-16T04:25:45.591Z,99401.31
2023-03-16T04:28:34.258Z,99395.72
2023-03-16T04:31:21.036Z,99379.47
2023-03-16T04:34:08.193Z,99398.94
2023-03-16T04:36:54.729Z,99366.38
2023-03-16T04:39:42.052Z,99405.97
2023-03-16T04:42:29.140Z,99405.53
2023-03-16T04:45:17.536Z,99394.19
2023-03-16T04:48:05.317Z,99314.81
2023-03-16T04:50:51.812Z,99339.00
2023-03-16T04:53:38.520Z,99385.16
2023-03-16T04:56:34.689Z,99379.44
2023-03-16T04:59:25.239Z,99386.34
2023-03-16T05:02:20.638Z,99351.88
2023-03-16T05:05:08.632Z,99364.78
2023-03-16T05:07:58.131Z,99391.25
2023-03-16T05:10:48.405Z,99370.13
2023-03-16T05:13:35.274Z,99389.59
2023-03-16T05:16:21.694Z,99338.66
2023-03-16T05:19:08.400Z,99355.06
2023-03-16T05:21:56.919Z,99363.13
2023-03-16T05:24:43.974Z,99360.72
2023-03-16T05:27:30.336Z,99345.34
2023-03-16T05:30:18.647Z,99393.84
2023-03-16T05:33:06.142Z,99356.34
2023-03-16T05:35:53.530Z,99346.84
2023-03-16T05:38:40.051Z,99354.09
2023-03-16T05:41:30.141Z,99366.38
2023-03-16T05:44:24.675Z,99370.66
2023-03-16T05:47:28.294Z,99338.84
2023-03-16T05:50:17.880Z,99359.81
2023-03-16T05:53:04.861Z,99371.88
2023-03-16T05:55:52.858Z,99365.63
2023-03-16T05:58:39.632Z,99349.03
2023-03-16T06:01:28.418Z,99346.44
2023-03-16T06:04:15.491Z,99371.97
2023-03-16T06:07:02.479Z,99376.00
2023-03-16T06:09:50.026Z,99358.44
2023-03-16T06:12:36.596Z,99359.81
2023-03-16T06:15:26.597Z,99359.47
2023-03-16T06:18:15.088Z,99353.81
2023-03-16T06:21:05.095Z,99367.16
2023-03-16T06:23:53.770Z,99362.59
2023-03-16T06:26:41.226Z,99339.19
2023-03-16T06:29:31.137Z,99375.44
2023-03-16T06:32:17.624Z,99376.94
2023-03-16T06:35:05.804Z,99384.72
2023-03-16T06:37:53.399Z,99370.75
2023-03-16T06:40:55.631Z,99355.47
2023-03-16T06:43:43.642Z,99345.47
2023-03-16T06:46:32.980Z,99350.69
2023-03-16T06:49:21.316Z,99333.09
2023-03-16T06:52:10.417Z,99330.44
2023-03-16T06:54:58.474Z,99367.69
2023-03-16T06:57:46.581Z,99303.44
2023-03-16T07:00:34.084Z,99331.75
2023-03-16T07:03:21.605Z,99395.38
2023-03-16T07:06:14.031Z,99357.19
2023-03-16T07:09:02.102Z,99366.63
2023-03-16T07:11:50.038Z,99382.44
2023-03-16T07:14:36.449Z,99360.13
2023-03-16T07:17:23.750Z,99370.09
2023-03-16T07:20:12.710Z,99383.84
2023-03-16T07:22:59.452Z,99368.03
2023-03-16T07:25:46.091Z,99355.50
2023-03-16T07:28:35.462Z,99376.97
2023-03-16T07:31:24.627Z,99388.00
2023-03-16T07:34:11.893Z,99363.66
2023-03-16T07:37:03.301Z,99356.78
2023-03-16T07:39:52.071Z,99366.44
2023-03-16T07:42:40.561Z,99399.75
2023-03-16T07:45:33.787Z,99367.56
2023-03-16T07:48:20.854Z,99385.34
2023-03-16T07:51:14.958Z,99396.66
2023-03-16T07:54:05.746Z,99391.06
2023-03-16T07:56:54.454Z,99373.03
2023-03-16T07:59:48.928Z,99368.53
2023-03-16T08:02:37.619Z,99392.88
2023-03-16T08:05:27.607Z,99364.44
2023-03-16T08:08:19.306Z,99365.84
2023-03-16T08:11:05.959Z,99339.00
2023-03-16T08:14:05.382Z,99361.41
2023-03-16T08:17:12.313Z,99339.38
2023-03-16T08:19:59.886Z,99360.47
2023-03-16T08:22:47.091Z,99362.75
2023-03-16T08:25:36.160Z,99367.00
2023-03-16T08:28:27.865Z,99339.63
2023-03-16T08:31:15.893Z,99324.06
2023-03-16T08:34:11.644Z,99326.13
2023-03-16T08:37:02.697Z,99333.59
2023-03-16T08:39:51.391Z,99353.09
2023-03-16T08:42:41.297Z,99324.09
2023-03-16T08:45:29.675Z,99332.25
2023-03-16T08:48:16.052Z,99320.16
2023-03-16T08:51:05.893Z,99343.47
2023-03-16T08:53:52.839Z,99351.84
2023-03-16T08:56:39.230Z,99341.50
2023-03-16T08:59:30.078Z,99317.31
2023-03-16T09:02:16.902Z,99333.53
2023-03-16T09:05:03.517Z,99341.00
2023-03-16T09:07:49.785Z,99332.41
2023-03-16T09:10:36.519Z,99255.81
2023-03-16T09:13:22.701Z,99315.41
2023-03-16T09:16:10.223Z,99329.81
2023-03-16T09:18:56.999Z,99328.66
2023-03-16T09:21:46.496Z,99292.66
2023-03-16T09:24:33.904Z,99335.19
2023-03-16T09:27:20.926Z,99316.16
2023-03-16T09:30:08.508Z,99305.22
2023-03-16T09:32:55.119Z,99276.47
2023-03-16T09:35:42.759Z,99307.22
2023-03-16T09:38:29.336Z,99266.88
2023-03-16T09:41:35.212Z,99243.97
2023-03-16T09:45:06.568Z,99303.09
2023-03-16T09:47:58.383Z,99289.59
2023-03-16T09:50:49.332Z,99291.53
2023-03-16T09:53:39.472Z,99289.13
2023-03-16T09:56:41.805Z,99286.66
2023-03-16T09:59:28.543Z,99277.47
2023-03-16T10:02:20.648Z,99274.50
2023-03-16T10:05:10.428Z,99294.84
2023-03-16T10:08:07.731Z,99296.44
2023-03-16T10:10:58.785Z,99294.66
2023-03-16T10:13:52.669Z,99248.19
2023-03-16T10:16:39.364Z,99283.50
2023-03-16T10:19:38.467Z,99252.53
2023-03-16T10:22:33.566Z,99261.50
2023-03-16T10:25:31.050Z,99272.78
2023-03-16T10:28:23.555Z,99265.13
2023-03-16T10:31:11.894Z,99265.78
2023-03-16T10:34:05.205Z,99245.94
2023-03-16T10:36:54.422Z,99213.81
2023-03-16T10:39:43.401Z,99247.63
2023-03-16T10:42:29.618Z,99235.81
2023-03-16T10:45:29.955Z,99241.84
2023-03-16T10:48:20.353Z,99241.03
2023-03-16T10:51:12.079Z,99226.06
2023-03-16T10:54:10.802Z,99243.41
2023-03-16T10:56:58.813Z,99216.75
2023-03-16T10:59:49.638Z,99202.06
2023-03-16T11:02:36.057Z,99208.09
2023-03-16T11:05:28.989Z,99246.81
2023-03-16T11:08:23.658Z,99222.72
2023-03-16T11:11:17.108Z,99230.59
2023-03-16T11:14:12.781Z,99231.66
2023-03-16T11:17:06.276Z,99227.50
2023-03-16T11:19:56.660Z,99226.72
2023-03-16T11:22:45.627Z,99218.09
2023-03-16T11:25:38.587Z,99198.31
2023-03-16T11:28:35.107Z,99208.72
2023-03-16T11:31:39.402Z,99205.31
2023-03-16T11:34:31.521Z,99183.75
2023-03-16T11:37:51.745Z,99206.19
2023-03-16T11:40:48.954Z,99202.78
2023-03-16T11:43:35.140Z,99192.47
2023-03-16T11:46:39.046Z,99185.59
2023-03-16T11:49:55.688Z,99183.03
2023-03-16T11:53:07.047Z,99177.84
2023-03-16T11:56:09.865Z,99150.22
2023-03-16T11:59:11.481Z,99163.13
2023-03-16T12:02:22.770Z,99163.09
2023-03-16T12:06:07.818Z,99172.41
2023-03-16T12:09:14.663Z,99166.34
2023-03-16T12:12:14.112Z,99173.25
2023-03-16T12:15:17.037Z,99168.66
2023-03-16T12:18:15.367Z,99169.66
2023-03-16T12:21:06.210Z,99162.53
2023-03-16T12:23:55.245Z,99114.91
2023-03-16T12:26:43.329Z,99111.88
2023-03-16T12:29:42.735Z,99119.25
2023-03-16T12:32:46.717Z,99137.84
2023-03-16T12:35:48.863Z,99132.81
2023-03-16T12:39:24.884Z,99134.16
2023-03-16T12:42:35.745Z,99107.41
2023-03-16T12:45:35.091Z,99122.97
2023-03-16T12:48:27.335Z,99077.19
2023-03-16T12:51:13.964Z,99088.44
2023-03-16T12:54:00.618Z,99111.50
2023-03-16T12:56:49.324Z,99090.22
2023-03-16T12:59:40.308Z,99103.09
2023-03-16T13:02:34.441Z,99119.66
2023-03-16T13:05:34.615Z,99087.44
2023-03-16T13:08:22.798Z,99073.47
2023-03-16T13:11:14.686Z,99083.88
2023-03-16T13:14:01.469Z,99097.03
2023-03-16T13:16:49.687Z,99095.50
2023-03-16T13:19:37.907Z,99064.53
2023-03-16T13:22:47.944Z,99096.53
2023-03-16T13:25:58.061Z,99096.56
2023-03-16T13:28:51.997Z,99054.22
2023-03-16T13:31:41.918Z,99092.94
2023-03-16T13:34:48.085Z,99057.53
2023-03-16T13:37:34.365Z,99052.91
2023-03-16T13:40:27.458Z,99079.38
2023-03-16T13:43:28.895Z,99063.66
2023-03-16T13:46:22.213Z,99072.00
2023-03-16T13:49:11.948Z,99068.25
2023-03-16T13:51:58.760Z,99077.06
2023-03-16T13:54:45.330Z,99068.19
2023-03-16T13:57:37.397Z,99056.31
2023-03-16T14:00:27.397Z,99055.72
2023-03-16T14:03:17.667Z,99012.69
2023-03-16T14:06:05.738Z,99017.72
2023-03-16T14:08:56.228Z,99033.16
2023-03-16T14:11:44.561Z,99032.22
2023-03-16T14:14:37.027Z,99024.59
2023-03-16T14:17:24.007Z,99030.06
2023-03-16T14:20:19.365Z,99002.06
2023-03-16T14:23:06.376Z,98982.31
2023-03-16T14:25:53.610Z,98996.25
2023-03-16T14:28:42.404Z,99008.94
2023-03-16T14:31:40.908Z,98999.31
2023-03-16T14:34:35.972Z,98982.31
2023-03-16T14:37:22.463Z,98965.91
2023-03-16T14:40:35.978Z,98989.53
2023-03-16T14:43:39.028Z,98966.09
2023-03-16T14:46:42.056Z,98992.75
2023-03-16T14:49:34.646Z,98977.38
2023-03-16T14:52:31.664Z,98994.41
2023-03-16T14:55:20.079Z,98997.06
2023-03-16T14:58:06.724Z,98964.91
2023-03-16T15:00:54.622Z,98989.00
2023-03-16T15:03:42.717Z,98972.41
2023-03-16T15:06:31.206Z,98976.53
2023-03-16T15:09:36.397Z,98972.44
2023-03-16T15:12:25.033Z,98937.91
2023-03-16T15:15:16.330Z,98959.44
2023-03-16T15:18:02.663Z,98943.25
2023-03-16T15:20:52.109Z,98954.44
2023-03-16T15:23:39.715Z,98940.63
2023-03-16T15:26:28.641Z,98976.94
2023-03-16T15:29:15.161Z,98958.38
2023-03-16T15:32:01.326Z,98958.44
2023-03-16T15:34:47.788Z,98977.38
2023-03-16T15:37:36.325Z,98945.56
2023-03-16T15:40:26.860Z,98952.44
2023-03-16T15:43:19.646Z,98962.03
2023-03-16T15:46:07.073Z,98972.34
2023-03-16T15:48:53.482Z,98963.63
2023-03-16T15:51:40.173Z,98921.44
2023-03-16T15:54:26.529Z,98937.94
2023-03-16T15:57:13.098Z,98930.41
2023-03-16T16:00:00.204Z,98943.31
2023-03-16T16:02:46.941Z,98931.16
2023-03-16T16:05:33.649Z,98966.50
2023-03-16T16:08:20.738Z,98969.03
2023-03-16T16:11:21.222Z,98965.75
2023-03-16T16:14:14.828Z,98922.00
2023-03-16T16:17:01.323Z,98961.50
2023-03-16T16:19:47.993Z,98947.00
2023-03-16T16:22:36.826Z,98934.97
2023-03-16T16:25:24.773Z,98957.34
2023-03-16T16:28:18.071Z,98955.69
2023-03-16T16:31:12.761Z,98951.38
2023-03-16T16:33:59.150Z,98946.28
2023-03-16T16:36:45.619Z,98888.75
2023-03-16T16:39:31.999Z,98917.19
2023-03-16T16:42:18.575Z,98924.09
2023-03-16T16:45:06.309Z,98923.31
2023-03-16T16:47:55.710Z,98944.84
2023-03-16T16:50:41.838Z,98926.78
2023-03-16T16:53:28.514Z,98919.03
2023-03-16T16:56:17.458Z,98939.75
2023-03-16T16:59:18.162Z,98939.75
2023-03-16T17:02:22.532Z,98926.88
2023-03-16T17:05:21.609Z,98915.72
2023-03-16T17:08:11.195Z,98935.53
2023-03-16T17:10:58.428Z,98908.84
2023-03-16T17:13:46.922Z,98901.13
2023-03-16T17:16:36.920Z,98930.41
2023-03-16T17:19:27.037Z,98933.84
2023-03-16T17:22:22.787Z,98923.47
2023-03-16T17:25:10.308Z,98914.88
2023-03-16T17:27:57.984Z,98929.47
2023-03-16T17:30:47.995Z,98923.44
2023-03-16T17:33:34.269Z,98944.09
2023-03-16T17:36:21.557Z,98932.88
2023-03-16T17:39:23.663Z,98916.44
2023-03-16T17:42:17.606Z,98907.78
2023-03-16T17:45:14.884Z,98905.94
2023-03-16T17:48:01.240Z,98926.56
2023-03-16T17:50:48.952Z,98914.47
2023-03-16T17:53:35.540Z,98936.81
2023-03-16T17:56:25.379Z,98931.53
2023-03-16T17:59:18.597Z,98927.97
2023-03-16T18:02:35.492Z,98941.72
2023-03-16T18:05:33.589Z,98942.44
2023-03-16T18:08:26.186Z,98925.06
2023-03-16T18:11:21.300Z,98920.63
2023-03-16T18:14:19.491Z,98908.50
2023-03-16T18:17:28.036Z,98928.34
2023-03-16T18:20:23.405Z,98929.03
2023-03-16T18:23:17.470Z,98919.50
2023-03-16T18:26:04.234Z,98896.97
2023-03-16T18:28:53.415Z,98929.69
2023-03-16T18:31:41.884Z,98914.25
2023-03-16T18:34:33.613Z,98910.75
2023-03-16T18:37:23.464Z,98901.19
2023-03-16T18:40:15.725Z,98930.31
2023-03-16T18:43:02.022Z,98892.22
2023-03-16T18:45:49.160Z,98919.88
2023-03-16T18:48:36.575Z,98931.81
2023-03-16T18:51:23.793Z,98868.09
2023-03-16T18:54:30.489Z,98931.88
2023-03-16T18:57:22.953Z,98927.44
2023-03-16T19:00:15.811Z,98915.41
2023-03-16T19:03:03.440Z,98902.31
2023-03-16T19:05:50.427Z,98834.81
2023-03-16T19:08:37.289Z,98884.78
2023-03-16T19:11:23.933Z,98903.69
2023-03-16T19:14:20.815Z,98915.84
2023-03-16T19:17:07.434Z,98875.97
2023-03-16T19:19:53.628Z,98912.94
2023-03-16T19:22:40.275Z,98922.34
2023-03-16T19:25:32.135Z,98882.59
2023-03-16T19:28:34.228Z,98920.75
2023-03-16T19:31:26.016Z,98909.59
2023-03-16T19:34:18.004Z,98910.44
2023-03-16T19:37:04.529Z,98895.66
2023-03-16T19:39:51.223Z,98877.53
2023-03-16T19:42:40.580Z,98913.88
2023-03-16T19:45:33.790Z,98918.09
2023-03-16T19:48:42.376Z,98917.28
2023-03-16T19:51:31.190Z,98899.13
2023-03-16T19:54:29.453Z,98910.16
2023-03-16T19:57:19.290Z,98894.56
2023-03-16T20:00:07.816Z,98879.72
2023-03-16T20:02:55.975Z,98906.50
2023-03-16T20:05:42.315Z,98879.19
2023-03-16T20:08:29.369Z,98896.28
2023-03-16T20:11:28.339Z,98900.00
2023-03-16T20:14:23.699Z,98903.19
2023-03-16T20:17:12.556Z,98899.66
2023-03-16T20:19:58.974Z,98862.34
2023-03-16T20:22:45.426Z,98888.16
2023-03-16T20:25:32.952Z,98879.38
2023-03-16T20:28:25.614Z,98899.13
2023-03-16T20:31:21.587Z,98910.97
2023-03-16T20:34:32.533Z,98900.44
2023-03-16T20:37:26.384Z,98902.94
2023-03-16T20:40:13.730Z,98900.19
2023-03-16T20:43:00.252Z,98827.50
2023-03-16T20:45:46.882Z,98873.19
2023-03-16T20:48:34.168Z,98881.94
2023-03-16T20:51:21.660Z,98865.50
2023-03-16T20:54:08.538Z,98886.19
2023-03-16T20:56:55.115Z,98892.16
2023-03-16T20:59:43.414Z,98882.88
2023-03-16T21:02:31.977Z,98897.41
2023-03-16T21:05:18.740Z,98900.94
2023-03-16T21:08:05.190Z,98880.09
2023-03-16T21:10:55.056Z,98894.72
2023-03-16T21:13:41.425Z,98866.16
2023-03-16T21:16:29.999Z,98880.75
2023-03-16T21:19:19.765Z,98884.31
2023-03-16T21:22:22.565Z,98834.78
2023-03-16T21:25:20.511Z,98853.00
2023-03-16T21:28:07.358Z,98856.19
2023-03-16T21:30:57.383Z,98879.53
2023-03-16T21:33:44.543Z,98866.44
2023-03-16T21:36:31.145Z,98826.78
2023-03-16T21:39:23.520Z,98886.16
2023-03-16T21:42:10.309Z,98875.28
2023-03-16T21:44:56.509Z,98877.88
2023-03-16T21:47:43.671Z,98878.97
2023-03-16T21:50:34.616Z,98878.84
2023-03-16T21:53:33.405Z,98871.91
2023-03-16T21:56:22.850Z,98878.69
2023-03-16T21:59:10.004Z,98857.88
2023-03-16T22:02:02.089Z,98850.13
2023-03-16T22:04:51.830Z,98872.72
2023-03-16T22:07:38.319Z,98826.09
2023-03-16T22:10:28.537Z,98871.00
2023-03-16T22:13:15.183Z,98858.19
2023-03-16T22:16:03.528Z,98860.97
2023-03-16T22:18:52.364Z,98866.09
2023-03-16T22:21:44.361Z,98828.94
2023-03-16T22:24:34.511Z,98861.69
2023-03-16T22:27:22.869Z,98854.75
2023-03-16T22:30:28.227Z,98831.34
2023-03-16T22:33:19.262Z,98859.44
2023-03-16T22:36:09.163Z,98851.47
2023-03-16T22:39:02.566Z,98852.06
2023-03-16T22:41:49.001Z,98830.19
2023-03-16T22:44:35.241Z,98825.75
2023-03-16T22:47:24.379Z,98834.22
2023-03-16T22:50:16.537Z,98806.41
2023-03-16T22:53:07.003Z,98842.56
2023-03-16T22:55:55.424Z,98833.94
2023-03-16T22:58:51.220Z,98825.16
2023-03-16T23:01:43.663Z,98822.34
2023-03-16T23:04:32.246Z,98784.31
2023-03-16T23:07:19.630Z,98818.75
2023-03-16T23:10:06.303Z,98775.41
2023-03-16T23:12:53.444Z,98809.00
2023-03-16T23:15:40.039Z,98769.16
2023-03-16T23:18:26.672Z,98760.50
2023-03-16T23:21:15.409Z,98812.38
2023-03-16T23:24:04.224Z,98777.97
2023-03-16T23:26:52.096Z,98784.78
2023-03-16T23:29:38.423Z,98789.91
2023-03-16T23:32:24.946Z,98781.09
2023-03-16T23:35:16.870Z,98829.47
2023-03-16T23:38:03.212Z,98784.53
2023-03-16T23:40:49.739Z,98817.44
2023-03-16T23:43:36.466Z,98786.41
2023-03-16T23:46:24.849Z,98822.84
2023-03-16T23:49:19.355Z,98814.88
2023-03-16T23:52:06.169Z,98825.09
2023-03-16T23:54:52.669Z,98787.84
2023-03-16T23:57:39.082Z,98779.97
